METAR AND TAF INFORMATION
METAR FOR KADM
ADDS - METARS form results

(0855 UTC 28 October 2021)
Data provider http://aviationweather.gov/metar/data/
 
METAR text: KADM 280835Z AUTO 29012G19KT 10SM CLR 14/03 A2961 RMK AO2
Conditions at: KADM (ARDMORE , OK, US) observed 0835 UTC 28 October 2021
Temperature: 14.0°C (57°F)
Dewpoint: 3.0°C (37°F) [RH = 47%]
Pressure (altimeter): 29.61 inches Hg (1002.8 mb)
Winds: from the WNW (290 degrees) at 14 MPH (12 knots; 6.2 m/s)
gusting to 22 MPH (19 knots; 9.8 m/s)
Visibility: 10 or more miles (16+ km)
Ceiling: at least 12,000 feet AGL
Clouds: sky clear below 12,000 feet AGL
Weather: automated observation with no human augmentation;
there may or may not be significant weather present at this time

METAR text: KADM 280815Z AUTO 28012KT 10SM CLR 13/05 A2960 RMK AO2
Conditions at: KADM (ARDMORE , OK, US) observed 0815 UTC 28 October 2021
Temperature: 13.0°C (55°F)
Dewpoint: 5.0°C (41°F) [RH = 58%]
Pressure (altimeter): 29.60 inches Hg (1002.5 mb)
Winds: from the W (280 degrees) at 14 MPH (12 knots; 6.2 m/s)
Visibility: 10 or more miles (16+ km)
Ceiling: at least 12,000 feet AGL
Clouds: sky clear below 12,000 feet AGL
Weather: automated observation with no human augmentation;
there may or may not be significant weather present at this time

 AIRPORT MAP

 RUNWAY INFORMATION
Runway 04 Runway length 6761 ft Runway width 150 ft
Runway elevation 725 ft Runway displaced threshold 0 ft Runway heading 46
Runway 22 Runway length 6761 ft Runway width 150 ft
Runway elevation 738 ft Runway displaced threshold 0 ft Runway heading 226
Runway 08 Runway length 7225 ft Runway width 150 ft
Runway elevation 0 ft Runway displaced threshold 0 ft Runway heading 85
Runway 26 Runway length 7225 ft Runway width 150 ft
Runway elevation 0 ft Runway displaced threshold 0 ft Runway heading 265
Runway 13 Runway length 7220 ft Runway width 150 ft
Runway elevation 762 ft Runway displaced threshold 0 ft Runway heading 135
Runway 31 Runway length 7220 ft Runway width 150 ft
Runway elevation 729 ft Runway displaced threshold 300 ft Runway heading 315
Runway 17 Runway length 5006 ft Runway width 100 ft
Runway elevation 753 ft Runway displaced threshold 0 ft Runway heading 180
Runway 35 Runway length 5006 ft Runway width 100 ft
Runway elevation 725 ft Runway displaced threshold 0 ft Runway heading 0

 AIRPORT FREQUENCIES
Type ATIS Name ATIS Frequency 125.6 MHZ
Type CNTR Name FORT WORTH Frequency 128.1 MHZ
Type CTAF Name CTAF Frequency 118.5 MHZ
Type GND Name GND Frequency 121.8 MHZ
Type RDO Name MC ALESTER Frequency 122.55 MHZ
Type TWR Name TWR Frequency 118.5 MHZ
Type UNIC Name UNICOM Frequency 122.95 MHZ

 AIRPORT NEAR NAVIGATION AIDS

-